Time;durP1;ratioP1;P1;durP2;ratioP2;P2;SDS_P1;SDS_P2;PMS_P1;PMS_P2;Temp;Humidity;BMP_temperature;BMP_pressure;BME280_temperature;BME280_humidity;BME280_pressure;Samples;Min_cycle;Max_cycle;Signal;HPM_P1;HPM_P2
2021/09/02 00:01:35;;;;;;;7.18;5.25;;;;;;;14.17;74.61;97572.13;4975408;28;20051;-80
2021/09/02 00:04:04;;;;;;;5.55;4.90;;;;;;;14.17;74.68;97577.38;4975770;28;20051;-80
2021/09/02 00:06:31;;;;;;;6.90;5.00;;;;;;;14.15;75.32;97582.00;4975464;28;20118;-80
2021/09/02 00:08:59;;;;;;;7.75;6.20;;;;;;;14.12;74.70;97580.53;4976664;28;20059;-80
2021/09/02 00:11:28;;;;;;;6.65;5.47;;;;;;;14.00;72.38;97577.53;4975414;28;20078;-79
2021/09/02 00:13:56;;;;;;;8.38;5.55;;;;;;;13.90;71.46;97571.72;4974256;28;20067;-80
2021/09/02 00:16:24;;;;;;;5.72;4.90;;;;;;;13.83;71.76;97567.38;4974024;28;20119;-80
2021/09/02 00:18:52;;;;;;;6.88;5.45;;;;;;;13.78;70.46;97567.94;4974562;28;20049;-80
2021/09/02 00:21:20;;;;;;;8.65;5.55;;;;;;;13.69;69.92;97556.69;4974410;28;20061;-80
2021/09/02 00:23:47;;;;;;;8.52;5.72;;;;;;;13.71;74.02;97559.97;4975040;28;20043;-80
2021/09/02 00:26:16;;;;;;;8.75;5.47;;;;;;;13.79;75.88;97561.69;4975419;28;20110;-80
2021/09/02 00:28:45;;;;;;;6.80;5.82;;;;;;;13.83;74.69;97555.09;4974045;28;20053;-80
2021/09/02 00:31:13;;;;;;;6.40;5.60;;;;;;;13.83;74.26;97555.09;4974801;28;20039;-80
2021/09/02 00:33:41;;;;;;;7.43;5.78;;;;;;;13.80;75.74;97551.00;4979534;28;20070;-80
2021/09/02 00:36:09;;;;;;;6.68;5.60;;;;;;;13.76;72.99;97557.59;4979870;28;20031;-79
2021/09/02 00:38:38;;;;;;;7.15;5.00;;;;;;;13.64;70.21;97555.59;4978809;28;20057;-80
2021/09/02 00:41:06;;;;;;;6.90;4.72;;;;;;;13.55;70.76;97553.03;4976672;28;20062;-80
2021/09/02 00:43:38;;;;;;;8.25;5.30;;;;;;;13.45;71.04;97536.75;4975888;28;20131;-80
2021/09/02 00:46:09;;;;;;;7.03;5.22;;;;;;;13.34;69.17;97542.41;4975104;28;20119;-80
2021/09/02 00:48:37;;;;;;;6.77;5.07;;;;;;;13.24;69.21;97542.59;4978365;28;20066;-80
2021/09/02 00:51:05;;;;;;;9.23;5.90;;;;;;;13.16;69.23;97548.75;4976708;28;20131;-80
2021/09/02 00:53:34;;;;;;;7.80;5.07;;;;;;;13.11;69.01;97545.00;4972798;28;20114;-80
2021/09/02 00:56:01;;;;;;;5.53;4.68;;;;;;;13.07;69.15;97541.09;4973263;28;20111;-80
2021/09/02 00:58:29;;;;;;;6.68;5.45;;;;;;;13.04;69.60;97534.41;4973106;28;20492;-80
2021/09/02 01:00:57;;;;;;;6.95;5.38;;;;;;;12.98;68.96;97537.72;4972760;28;20057;-80
2021/09/02 01:03:27;;;;;;;8.23;5.90;;;;;;;12.89;68.94;97533.53;4972553;28;20055;-80
2021/09/02 01:05:55;;;;;;;5.88;5.15;;;;;;;12.92;72.60;97539.25;4972332;29;20070;-79
2021/09/02 01:08:24;;;;;;;9.02;6.22;;;;;;;13.05;74.22;97535.22;4973459;28;20055;-80
2021/09/02 01:10:51;;;;;;;7.18;5.55;;;;;;;13.12;74.27;97536.16;4973087;28;20057;-80
2021/09/02 01:13:21;;;;;;;9.77;5.95;;;;;;;13.17;74.85;97539.06;4972654;28;20071;-80
2021/09/02 01:15:49;;;;;;;8.18;5.75;;;;;;;13.14;73.47;97537.63;4972889;28;20111;-80
2021/09/02 01:18:17;;;;;;;7.68;5.55;;;;;;;13.05;70.93;97543.06;4972721;28;20054;-80
2021/09/02 01:20:46;;;;;;;7.07;5.68;;;;;;;12.96;70.17;97537.88;4972665;28;20185;-80
2021/09/02 01:23:18;;;;;;;6.20;5.32;;;;;;;12.85;69.41;97530.41;4972671;28;20047;-80
2021/09/02 01:25:46;;;;;;;7.60;5.50;;;;;;;12.81;70.55;97534.38;4972878;28;20051;-80
2021/09/02 01:28:15;;;;;;;8.60;6.30;;;;;;;12.74;70.57;97539.47;4972692;28;20043;-80
2021/09/02 01:30:44;;;;;;;7.75;5.88;;;;;;;12.78;73.63;97539.97;4973654;28;20048;-80
2021/09/02 01:33:14;;;;;;;8.55;5.80;;;;;;;12.86;73.88;97533.88;4972685;28;20111;-80
2021/09/02 01:35:42;;;;;;;8.10;5.72;;;;;;;12.84;71.03;97528.81;4973591;28;20096;-80
2021/09/02 01:38:11;;;;;;;7.38;5.47;;;;;;;12.77;70.05;97533.13;4973073;28;20051;-79
2021/09/02 01:40:41;;;;;;;9.90;6.05;;;;;;;12.70;70.18;97533.00;4972108;28;20079;-80
2021/09/02 01:43:11;;;;;;;10.00;5.82;;;;;;;12.64;69.76;97532.84;4976391;28;20059;-80
2021/09/02 01:45:40;;;;;;;9.38;5.95;;;;;;;12.57;69.43;97532.69;4976861;28;20062;-80
2021/09/02 01:48:09;;;;;;;7.72;5.78;;;;;;;12.50;69.66;97531.75;4976306;28;20119;-80
2021/09/02 01:50:40;;;;;;;7.40;5.65;;;;;;;12.43;69.90;97531.63;4976146;28;20055;-80
2021/09/02 01:53:14;;;;;;;6.20;5.03;;;;;;;12.44;70.82;97545.53;4976330;28;20070;-80
2021/09/02 01:55:43;;;;;;;7.18;6.38;;;;;;;12.54;73.56;97539.09;4977244;28;20055;-80
2021/09/02 01:58:11;;;;;;;6.93;6.20;;;;;;;12.57;71.68;97532.69;4977100;28;20091;-80
2021/09/02 02:00:41;;;;;;;9.88;6.45;;;;;;;12.52;70.69;97537.66;4976546;28;20048;-80
2021/09/02 02:03:09;;;;;;;6.75;5.82;;;;;;;12.51;71.91;97528.19;4976612;28;20047;-80
2021/09/02 02:05:39;;;;;;;9.02;6.07;;;;;;;12.48;70.44;97533.72;4976358;28;20119;-81
2021/09/02 02:08:13;;;;;;;7.30;6.18;;;;;;;12.43;69.87;97530.81;4975829;28;20047;-80
2021/09/02 02:10:43;;;;;;;9.05;6.07;;;;;;;12.39;69.82;97526.91;4976386;28;20055;-80
2021/09/02 02:13:11;;;;;;;7.78;5.97;;;;;;;12.37;69.57;97521.84;4976645;28;20047;-81
2021/09/02 02:15:39;;;;;;;6.88;6.13;;;;;;;12.36;69.76;97528.06;4976603;28;20063;-80
2021/09/02 02:18:07;;;;;;;7.70;5.45;;;;;;;12.36;70.85;97526.25;4975991;28;20509;-80
2021/09/02 02:20:35;;;;;;;8.15;6.18;;;;;;;12.42;71.64;97532.63;4975820;28;20130;-80
2021/09/02 02:23:03;;;;;;;7.30;6.05;;;;;;;12.43;71.37;97525.59;4975739;28;20115;-80
2021/09/02 02:25:31;;;;;;;8.40;5.88;;;;;;;12.43;70.50;97526.41;4976338;28;20070;-81
2021/09/02 02:28:00;;;;;;;10.52;6.13;;;;;;;12.39;69.92;97526.91;4977374;28;20114;-81
2021/09/02 02:30:28;;;;;;;7.07;5.32;;;;;;;12.43;73.33;97530.81;4977528;28;20044;-80
2021/09/02 02:32:56;;;;;;;6.40;5.60;;;;;;;12.55;75.00;97532.91;4976964;28;20146;-80
2021/09/02 02:35:24;;;;;;;8.13;5.75;;;;;;;12.57;72.64;97530.09;4977106;28;20078;-80
2021/09/02 02:37:52;;;;;;;8.80;6.22;;;;;;;12.60;73.52;97524.53;4976898;28;20130;-80
2021/09/02 02:40:20;;;;;;;8.50;6.70;;;;;;;12.60;74.07;97531.56;4976895;28;20075;-80
2021/09/02 02:42:48;;;;;;;7.95;5.85;;;;;;;12.58;74.81;97523.88;4977003;28;20075;-81
2021/09/02 02:45:17;;;;;;;7.65;5.63;;;;;;;12.53;71.44;97527.00;4976218;28;20074;-80
2021/09/02 02:47:45;;;;;;;7.28;5.50;;;;;;;12.43;70.44;97523.78;4974917;28;20047;-80
2021/09/02 02:50:13;;;;;;;7.72;5.72;;;;;;;12.35;70.12;97527.25;4973546;28;20111;-80
2021/09/02 02:52:41;;;;;;;12.15;7.03;;;;;;;12.26;70.21;97520.41;4974189;28;20077;-81
2021/09/02 02:55:10;;;;;;;7.45;5.95;;;;;;;12.19;70.10;97524.69;4976844;28;20083;-80
2021/09/02 02:57:38;;;;;;;7.38;5.82;;;;;;;12.26;73.13;97528.25;4975868;28;20047;-80
2021/09/02 03:00:08;;;;;;;7.97;5.88;;;;;;;12.28;71.20;97518.44;4976175;28;20051;-80
2021/09/02 03:02:37;;;;;;;6.47;5.30;;;;;;;12.24;70.12;97521.56;4975599;28;20051;-81
2021/09/02 03:05:07;;;;;;;6.93;6.10;;;;;;;12.14;70.36;97527.00;4975593;28;20038;-80
2021/09/02 03:07:36;;;;;;;5.85;5.20;;;;;;;12.10;72.01;97520.47;4975429;28;20069;-80
2021/09/02 03:10:05;;;;;;;6.78;5.28;;;;;;;12.12;73.91;97521.94;4975198;28;20071;-81
2021/09/02 03:12:34;;;;;;;9.70;6.25;;;;;;;12.14;72.39;97516.56;4974068;28;20078;-80
2021/09/02 03:15:03;;;;;;;7.03;5.47;;;;;;;12.12;71.28;97518.53;4973672;28;20054;-80
2021/09/02 03:17:31;;;;;;;9.70;6.07;;;;;;;12.15;74.21;97512.94;4973433;28;20082;-80
2021/09/02 03:20:01;;;;;;;6.25;5.60;;;;;;;12.27;76.73;97522.06;4973988;28;20051;-80
2021/09/02 03:22:29;;;;;;;7.60;6.05;;;;;;;12.35;75.23;97518.56;4972428;28;20137;-80
2021/09/02 03:24:56;;;;;;;8.60;5.97;;;;;;;12.38;74.90;97522.69;4972675;28;20071;-80
2021/09/02 03:27:24;;;;;;;6.93;5.35;;;;;;;12.29;73.19;97517.47;4973250;28;20519;-80
2021/09/02 03:29:52;;;;;;;9.32;5.95;;;;;;;12.27;74.92;97511.59;4973672;28;20134;-81
2021/09/02 03:32:20;;;;;;;6.47;5.78;;;;;;;12.20;71.73;97515.88;4973859;28;20086;-80
2021/09/02 03:34:48;;;;;;;6.03;5.13;;;;;;;12.13;70.71;97513.13;4973959;28;20055;-81
2021/09/02 03:37:18;;;;;;;8.82;6.10;;;;;;;12.06;70.32;97513.97;4973786;28;20047;-81
2021/09/02 03:39:45;;;;;;;8.25;5.88;;;;;;;12.08;73.44;97517.22;4973707;28;20055;-80
2021/09/02 03:42:13;;;;;;;7.75;6.05;;;;;;;12.08;72.75;97523.25;4972788;28;20051;-80
2021/09/02 03:44:41;;;;;;;6.68;5.97;;;;;;;12.09;73.98;97513.59;4973915;28;20062;-80
2021/09/02 03:47:09;;;;;;;7.53;6.03;;;;;;;12.11;74.04;97511.63;4973601;28;20107;-80
2021/09/02 03:49:37;;;;;;;7.22;6.38;;;;;;;12.19;76.51;97513.44;4974583;28;20081;-80
2021/09/02 03:52:06;;;;;;;7.10;5.88;;;;;;;12.32;77.44;97527.59;4973346;28;20059;-80
2021/09/02 03:54:36;;;;;;;8.50;6.13;;;;;;;12.42;78.42;97523.94;4974447;28;20114;-80
2021/09/02 03:57:04;;;;;;;8.02;6.15;;;;;;;12.45;77.28;97521.00;4973433;28;20085;-80
2021/09/02 03:59:32;;;;;;;7.65;6.07;;;;;;;12.48;78.04;97521.47;4974907;28;20060;-80
2021/09/02 04:02:00;;;;;;;6.68;5.97;;;;;;;12.48;77.69;97518.03;4973951;28;20035;-80
2021/09/02 04:04:28;;;;;;;14.43;7.15;;;;;;;12.34;72.66;97523.00;4972803;28;20113;-80
2021/09/02 04:06:56;;;;;;;8.88;6.05;;;;;;;12.19;72.66;97519.47;4973773;28;20481;-80
2021/09/02 04:09:24;;;;;;;13.82;6.82;;;;;;;12.14;75.26;97519.16;4973994;28;20525;-80
2021/09/02 04:11:53;;;;;;;10.57;6.80;;;;;;;12.20;76.71;97520.28;4973833;28;20111;-80
2021/09/02 04:14:21;;;;;;;8.63;6.75;;;;;;;12.29;76.80;97527.94;4974171;28;20111;-80
2021/09/02 04:16:49;;;;;;;10.88;7.03;;;;;;;12.24;73.71;97524.19;4974032;28;20038;-80
2021/09/02 04:19:17;;;;;;;7.32;5.88;;;;;;;12.14;71.59;97524.41;4974004;28;20525;-80
2021/09/02 04:21:45;;;;;;;8.60;6.82;;;;;;;12.01;70.48;97524.13;4973855;28;20078;-80
2021/09/02 04:24:13;;;;;;;7.50;6.53;;;;;;;11.88;70.54;97512.38;4973274;28;20134;-80
2021/09/02 04:26:41;;;;;;;6.15;5.30;;;;;;;11.81;70.68;97521.84;4973032;28;20107;-80
2021/09/02 04:29:11;;;;;;;8.13;6.72;;;;;;;11.72;70.37;97518.44;4972761;28;20065;-81
2021/09/02 04:31:39;;;;;;;9.02;6.43;;;;;;;11.67;70.54;97522.50;4973015;28;20067;-81
2021/09/02 04:34:07;;;;;;;6.10;5.50;;;;;;;11.62;71.08;97523.00;4977902;23;20130;-81
2021/09/02 04:36:34;;;;;;;8.73;6.80;;;;;;;11.60;71.12;97526.78;4954960;28;20062;-81
2021/09/02 04:39:02;;;;;;;7.45;5.88;;;;;;;11.56;72.23;97526.28;4955397;28;20055;-81
2021/09/02 04:41:29;;;;;;;6.80;6.07;;;;;;;11.58;72.92;97520.91;4955409;28;20054;-81
2021/09/02 04:43:57;;;;;;;11.30;6.32;;;;;;;11.53;71.33;97524.81;4954759;28;20445;-81
2021/09/02 04:46:26;;;;;;;8.18;6.68;;;;;;;11.57;74.42;97525.31;4954845;28;20524;-81
2021/09/02 04:48:53;;;;;;;12.10;7.40;;;;;;;11.64;72.44;97528.06;4955030;28;20047;-81
2021/09/02 04:51:21;;;;;;;11.05;8.65;;;;;;;11.67;73.55;97530.34;4954924;28;20135;-81
2021/09/02 04:53:48;;;;;;;7.97;6.57;;;;;;;11.66;71.90;97526.13;4955046;28;20501;-81
2021/09/02 04:56:16;;;;;;;8.95;6.60;;;;;;;11.65;71.15;97521.84;4954995;28;20433;-81
2021/09/02 04:58:43;;;;;;;11.25;7.57;;;;;;;11.59;70.62;97520.72;4955063;28;20524;-81
2021/09/02 05:01:11;;;;;;;8.23;6.68;;;;;;;11.58;72.32;97526.13;4954625;28;20051;-81
2021/09/02 05:03:40;;;;;;;10.80;6.80;;;;;;;11.52;71.26;97533.66;4954173;28;20087;-81
2021/09/02 05:06:07;;;;;;;9.40;6.22;;;;;;;11.50;71.67;97527.75;4954545;28;20513;-81
2021/09/02 05:08:35;;;;;;;10.68;6.47;;;;;;;11.51;71.57;97525.97;4954947;28;20055;-81
2021/09/02 05:11:02;;;;;;;8.65;7.75;;;;;;;11.52;71.59;97531.03;4955415;28;20528;-81
2021/09/02 05:13:30;;;;;;;8.32;6.90;;;;;;;11.52;71.86;97532.81;4955279;28;20059;-81
2021/09/02 05:15:57;;;;;;;12.90;7.47;;;;;;;11.54;72.57;97529.06;4956703;28;20063;-81
2021/09/02 05:18:25;;;;;;;15.57;7.95;;;;;;;11.59;72.17;97525.13;4959250;28;20051;-81
2021/09/02 05:20:54;;;;;;;21.60;8.23;;;;;;;11.57;71.61;97529.69;4958929;28;20062;-81
2021/09/02 05:23:21;;;;;;;10.45;7.13;;;;;;;11.54;71.42;97525.63;4957940;28;20294;-81
2021/09/02 05:25:49;;;;;;;9.18;6.80;;;;;;;11.55;71.73;97528.06;4958300;28;20058;-81
2021/09/02 05:28:16;;;;;;;15.90;7.22;;;;;;;11.57;71.45;97533.16;4958650;28;20072;-81
2021/09/02 05:30:44;;;;;;;12.63;6.93;;;;;;;11.57;72.22;97530.53;4958800;28;20051;-81
2021/09/02 05:33:12;;;;;;;8.02;6.30;;;;;;;11.58;71.51;97534.75;4958309;28;20110;-81
2021/09/02 05:35:39;;;;;;;10.05;6.68;;;;;;;11.60;71.58;97535.41;4958929;28;20433;-81
2021/09/02 05:38:11;;;;;;;10.52;6.25;;;;;;;11.65;72.58;97532.31;4959158;28;20413;-81
2021/09/02 05:40:40;;;;;;;13.25;7.70;;;;;;;11.69;72.05;97533.63;4958778;28;20425;-81
2021/09/02 05:43:08;;;;;;;15.15;7.88;;;;;;;11.74;73.57;97536.53;4958199;28;20505;-81
2021/09/02 05:45:35;;;;;;;15.40;7.22;;;;;;;11.80;73.75;97535.88;4958730;28;20055;-81
2021/09/02 05:48:03;;;;;;;10.15;7.25;;;;;;;11.83;73.49;97529.50;4958572;28;20090;-81
2021/09/02 05:50:31;;;;;;;13.88;7.90;;;;;;;11.86;73.02;97545.69;4958290;28;20051;-81
2021/09/02 05:52:59;;;;;;;11.93;7.30;;;;;;;11.89;73.04;97545.34;4957981;28;20050;-81
2021/09/02 05:55:29;;;;;;;12.50;7.63;;;;;;;11.90;72.80;97549.63;4958228;28;20505;-81
2021/09/02 05:57:56;;;;;;;10.80;8.27;;;;;;;11.93;73.82;97541.44;4957878;28;20055;-81
2021/09/02 06:00:24;;;;;;;12.05;7.97;;;;;;;12.04;76.03;97542.06;4958124;28;20054;-81
2021/09/02 06:02:51;;;;;;;10.38;8.40;;;;;;;12.12;76.26;97545.47;4957887;28;20048;-81
2021/09/02 06:05:19;;;;;;;14.48;8.75;;;;;;;12.15;74.65;97542.50;4957965;28;20414;-80
2021/09/02 06:07:46;;;;;;;11.10;8.82;;;;;;;12.19;74.77;97547.44;4957966;28;20062;-81
2021/09/02 06:10:14;;;;;;;11.77;8.38;;;;;;;12.21;74.26;97546.28;4957887;28;20055;-81
2021/09/02 06:12:43;;;;;;;9.38;8.38;;;;;;;12.28;76.02;97549.03;4957617;28;20058;-81
2021/09/02 06:15:11;;;;;;;9.65;8.57;;;;;;;12.39;76.56;97547.84;4958010;28;20142;-81
2021/09/02 06:17:39;;;;;;;10.70;8.38;;;;;;;12.45;75.80;97539.31;4957496;28;20051;-81
2021/09/02 06:20:08;;;;;;;11.75;8.68;;;;;;;12.47;74.78;97540.78;4957720;28;20055;-81
2021/09/02 06:22:36;;;;;;;10.02;7.93;;;;;;;12.54;74.89;97541.72;4957295;28;20055;-81
2021/09/02 06:25:07;;;;;;;9.23;7.72;;;;;;;12.61;74.40;97543.66;4957725;28;20047;-81
2021/09/02 06:27:35;;;;;;;9.75;7.80;;;;;;;12.68;74.25;97541.97;4956789;28;20505;-81
2021/09/02 06:30:05;;;;;;;11.85;8.80;;;;;;;12.76;74.17;97547.97;4957256;28;20051;-81
2021/09/02 06:32:33;;;;;;;10.00;7.50;;;;;;;12.85;73.93;97538.28;4956890;28;20051;-81
2021/09/02 06:35:01;;;;;;;12.90;7.88;;;;;;;12.94;73.79;97545.13;4957521;28;20052;-81
2021/09/02 06:37:29;;;;;;;9.52;8.00;;;;;;;13.04;73.69;97539.66;4957703;28;20113;-81
2021/09/02 06:39:56;;;;;;;18.98;8.95;;;;;;;13.15;73.71;97548.91;4957491;28;20051;-81
2021/09/02 06:42:24;;;;;;;11.40;7.78;;;;;;;13.29;74.80;97539.50;4957183;28;20062;-81
2021/09/02 06:44:51;;;;;;;9.32;7.43;;;;;;;13.43;74.34;97540.53;4957288;28;20051;-81
2021/09/02 06:47:20;;;;;;;9.48;7.80;;;;;;;13.54;73.89;97540.94;4957083;28;20051;-82
2021/09/02 06:49:48;;;;;;;8.10;7.30;;;;;;;13.69;74.80;97529.66;4957146;28;20051;-81
2021/09/02 06:52:15;;;;;;;10.18;8.18;;;;;;;13.80;73.93;97539.72;4957176;28;20062;-81
2021/09/02 06:54:43;;;;;;;11.48;7.80;;;;;;;13.94;73.84;97538.91;4956979;28;20047;-81
2021/09/02 06:57:10;;;;;;;11.75;8.23;;;;;;;14.08;73.20;97542.56;4956502;28;20417;-81
2021/09/02 06:59:38;;;;;;;10.00;7.75;;;;;;;14.22;73.32;97543.53;4956964;28;20051;-81
2021/09/02 07:02:05;;;;;;;10.63;7.18;;;;;;;14.33;72.57;97550.94;4957083;28;20062;-81
2021/09/02 07:04:35;;;;;;;11.18;6.63;;;;;;;14.47;72.37;97562.41;4956991;28;20051;-81
2021/09/02 07:07:02;;;;;;;9.63;7.43;;;;;;;14.64;72.00;97557.81;4956753;28;20054;-81
2021/09/02 07:09:30;;;;;;;10.77;7.78;;;;;;;14.78;71.42;97553.53;4958050;28;20078;-81
2021/09/02 07:11:58;;;;;;;10.18;7.32;;;;;;;14.92;71.11;97546.63;4959699;28;20051;-81
2021/09/02 07:14:26;;;;;;;8.80;7.75;;;;;;;15.07;71.49;97549.22;4959196;28;20051;-81
2021/09/02 07:16:53;;;;;;;8.85;7.75;;;;;;;15.20;70.54;97552.78;4957830;28;20051;-81
2021/09/02 07:19:21;;;;;;;11.57;7.68;;;;;;;15.36;71.02;97558.78;4959315;28;20059;-81
2021/09/02 07:21:50;;;;;;;9.20;7.53;;;;;;;15.48;70.87;97565.16;4957472;28;20062;-81
2021/09/02 07:24:17;;;;;;;12.05;7.00;;;;;;;15.63;69.42;97558.00;4956594;28;20051;-82
2021/09/02 07:26:45;;;;;;;8.05;7.00;;;;;;;15.78;69.17;97552.66;4956757;28;20494;-82
2021/09/02 07:29:13;;;;;;;8.23;7.15;;;;;;;15.96;68.44;97564.53;4956578;28;20059;-81
2021/09/02 07:31:40;;;;;;;9.18;7.00;;;;;;;16.13;68.12;97563.22;4956701;28;20055;-82
2021/09/02 07:34:08;;;;;;;8.82;7.57;;;;;;;16.33;68.00;97568.59;4956224;28;20450;-81
2021/09/02 07:36:36;;;;;;;8.02;6.97;;;;;;;16.50;68.00;97573.56;4956670;28;20580;-81
2021/09/02 07:39:12;;;;;;;8.77;7.32;;;;;;;16.66;67.74;97570.59;4956934;28;20484;-82
2021/09/02 07:41:39;;;;;;;9.20;7.20;;;;;;;16.82;68.25;97569.47;4956785;28;20054;-81
2021/09/02 07:44:07;;;;;;;9.45;6.65;;;;;;;16.97;67.66;97572.78;4956827;28;20047;-81
2021/09/02 07:46:35;;;;;;;7.82;6.43;;;;;;;17.13;67.08;97568.94;4957363;28;20429;-81
2021/09/02 07:49:03;;;;;;;8.38;6.95;;;;;;;17.30;67.61;97572.03;4957683;28;20105;-81
2021/09/02 07:51:30;;;;;;;9.20;6.70;;;;;;;17.46;67.06;97568.19;4957017;28;20058;-82
2021/09/02 07:53:58;;;;;;;7.72;6.80;;;;;;;17.60;65.29;97572.47;4957080;28;20465;-81
2021/09/02 07:56:27;;;;;;;8.73;7.03;;;;;;;17.78;64.17;97573.69;4957040;28;20051;-81
2021/09/02 07:58:54;;;;;;;7.10;6.40;;;;;;;17.95;63.52;97576.75;4956958;28;20506;-81
2021/09/02 08:01:23;;;;;;;8.73;6.15;;;;;;;18.15;63.25;97582.81;4957446;28;20062;-82
2021/09/02 08:03:51;;;;;;;7.97;5.93;;;;;;;18.35;62.76;97582.78;4957551;28;20512;-82
2021/09/02 08:06:19;;;;;;;7.60;5.90;;;;;;;18.56;62.84;97586.16;4957171;28;20055;-81
2021/09/02 08:08:46;;;;;;;9.70;5.97;;;;;;;18.78;61.11;97581.44;4957550;28;20059;-81
2021/09/02 08:11:14;;;;;;;8.25;5.50;;;;;;;18.98;61.10;97590.09;4957823;28;20618;-81
2021/09/02 08:13:43;;;;;;;6.60;5.00;;;;;;;19.17;57.39;97584.91;4957521;28;20043;-82
2021/09/02 08:16:10;;;;;;;5.35;4.78;;;;;;;19.33;56.92;97587.06;4958144;28;20524;-82
2021/09/02 08:18:38;;;;;;;6.43;4.88;;;;;;;19.51;56.19;97581.84;4959146;28;20516;-81
2021/09/02 08:21:06;;;;;;;5.47;4.75;;;;;;;19.67;55.13;97588.44;4958807;28;20058;-81
2021/09/02 08:23:33;;;;;;;6.10;4.95;;;;;;;19.81;54.26;97593.66;4958310;28;20506;-81
2021/09/02 08:26:01;;;;;;;5.78;5.15;;;;;;;19.96;53.90;97583.53;4958781;28;20044;-82
2021/09/02 08:28:28;;;;;;;6.13;5.20;;;;;;;20.15;54.33;97592.34;4958965;28;20067;-81
2021/09/02 08:30:57;;;;;;;7.30;4.80;;;;;;;20.33;52.64;97588.91;4960146;28;20047;-81
2021/09/02 08:33:25;;;;;;;5.28;4.70;;;;;;;20.49;51.91;97592.81;4961326;28;20058;-82
2021/09/02 08:35:53;;;;;;;7.43;4.80;;;;;;;20.61;51.54;97591.06;4963190;28;20062;-81
2021/09/02 08:38:21;;;;;;;5.53;4.88;;;;;;;20.75;51.71;97592.53;4964215;28;20047;-81
2021/09/02 08:40:49;;;;;;;7.53;5.57;;;;;;;20.87;50.88;97592.59;4959517;28;20417;-82
2021/09/02 08:43:17;;;;;;;5.65;5.03;;;;;;;20.97;50.70;97592.09;4959711;28;20055;-82
2021/09/02 08:46:06;;;;;;;7.20;5.03;;;;;;;21.10;50.39;97593.72;4959377;28;20102;-81
2021/09/02 08:48:38;;;;;;;5.80;4.82;;;;;;;21.19;50.52;97593.19;4959759;28;20524;-82
2021/09/02 08:51:06;;;;;;;7.32;5.30;;;;;;;21.28;49.74;97591.03;4960134;28;20425;-82
2021/09/02 08:53:33;;;;;;;6.30;4.97;;;;;;;21.39;49.38;97584.16;4960405;28;20398;-81
2021/09/02 08:56:01;;;;;;;7.43;4.68;;;;;;;21.49;48.86;97589.72;4960151;28;20051;-81
2021/09/02 08:58:30;;;;;;;6.57;4.97;;;;;;;21.60;48.43;97585.47;4960503;28;20051;-81
2021/09/02 09:00:57;;;;;;;5.43;4.72;;;;;;;21.68;47.96;97577.19;4960130;28;20519;-81
2021/09/02 09:03:27;;;;;;;5.85;4.72;;;;;;;21.79;48.28;97586.22;4959666;28;20055;-81
2021/09/02 09:05:57;;;;;;;8.02;5.57;;;;;;;21.94;47.86;97578.59;4960112;28;20526;-81
2021/09/02 09:08:33;;;;;;;6.15;5.03;;;;;;;22.11;47.14;97584.03;4960697;29;20051;-81
2021/09/02 09:11:14;;;;;;;5.50;4.55;;;;;;;22.34;50.81;97583.22;4961165;28;20051;-82
2021/09/02 09:13:43;;;;;;;6.10;5.00;;;;;;;22.56;46.81;97574.66;4961243;28;20051;-82
2021/09/02 09:16:11;;;;;;;6.40;4.47;;;;;;;22.79;46.17;97574.59;4960089;28;20502;-82
2021/09/02 09:18:45;;;;;;;7.57;4.47;;;;;;;23.10;44.20;97577.06;4961118;28;20055;-82
2021/09/02 09:21:14;;;;;;;4.95;4.20;;;;;;;23.48;43.12;97575.59;4961603;28;20052;-82
2021/09/02 09:23:57;;;;;;;8.38;4.82;;;;;;;23.97;42.59;97574.00;4962125;28;20157;-82
2021/09/02 09:26:26;;;;;;;5.35;4.57;;;;;;;24.20;43.51;97570.31;4961711;28;20058;-82
2021/09/02 09:28:57;;;;;;;4.85;3.95;;;;;;;24.23;42.14;97580.50;4962236;28;20051;-82
2021/09/02 09:31:30;;;;;;;5.65;4.43;;;;;;;24.27;41.88;97568.31;4961884;28;20070;-82
2021/09/02 09:34:00;;;;;;;7.20;4.47;;;;;;;24.32;40.59;97574.78;4962322;28;20055;-82
2021/09/02 09:36:29;;;;;;;4.88;4.07;;;;;;;24.26;40.89;97577.34;4963356;28;20053;-82
2021/09/02 09:38:59;;;;;;;5.57;4.10;;;;;;;24.34;41.35;97575.34;4962854;28;20043;-82
2021/09/02 09:41:38;;;;;;;7.10;4.05;;;;;;;24.58;40.31;97574.06;4961702;28;20058;-82
2021/09/02 09:44:19;;;;;;;5.93;3.97;;;;;;;24.95;39.18;97568.09;4961488;28;20055;-81
2021/09/02 09:47:06;;;;;;;4.13;3.53;;;;;;;25.15;39.82;97572.84;4962077;28;20043;-82
2021/09/02 09:49:43;;;;;;;7.05;4.28;;;;;;;25.00;38.96;97576.16;4961639;28;20055;-82
2021/09/02 09:52:19;;;;;;;4.53;3.53;;;;;;;24.85;40.24;97567.97;4962598;28;20051;-81
2021/09/02 09:54:46;;;;;;;3.75;3.45;;;;;;;24.86;39.83;97564.22;4961371;29;20051;-82
2021/09/02 09:57:14;;;;;;;5.53;3.85;;;;;;;24.79;39.33;97560.97;4962264;28;20047;-82
2021/09/02 09:59:43;;;;;;;4.38;3.78;;;;;;;24.74;38.81;97574.25;4963080;28;20055;-81
2021/09/02 10:02:11;;;;;;;4.07;3.67;;;;;;;24.64;39.09;97557.06;4962638;28;20051;-82
2021/09/02 10:04:41;;;;;;;4.93;3.95;;;;;;;24.56;39.31;97560.16;4965755;28;20051;-82
2021/09/02 10:07:13;;;;;;;5.40;3.55;;;;;;;24.57;40.17;97563.63;4966155;28;20047;-82
2021/09/02 10:09:40;;;;;;;4.47;3.83;;;;;;;24.59;38.87;97553.53;4965619;28;20054;-81
2021/09/02 10:12:08;;;;;;;4.88;4.30;;;;;;;24.58;39.43;97542.06;4967623;28;20059;-82
2021/09/02 10:14:36;;;;;;;5.00;3.90;;;;;;;24.60;39.39;97553.28;4966794;28;20140;-82
2021/09/02 10:17:04;;;;;;;6.20;4.15;;;;;;;24.53;38.97;97543.84;4965743;28;20421;-82
2021/09/02 10:19:35;;;;;;;4.60;3.90;;;;;;;24.40;40.52;97542.31;4966301;28;20055;-82
2021/09/02 10:22:04;;;;;;;4.40;3.50;;;;;;;24.37;40.33;97553.50;4965640;28;20065;-81
2021/09/02 10:24:36;;;;;;;6.22;4.57;;;;;;;24.29;39.50;97538.72;4966535;28;20047;-82
2021/09/02 10:27:34;;;;;;;4.45;3.20;;;;;;;24.33;40.95;97539.03;4967337;28;20052;-82
2021/09/02 10:30:20;;;;;;;5.65;3.67;;;;;;;24.38;40.52;97537.25;4967731;28;20051;-82
2021/09/02 10:41:02;;;;;;;4.68;3.33;;;;;;;24.44;40.38;97540.78;4983775;28;20031;-79
2021/09/02 10:43:58;;;;;;;4.43;3.75;;;;;;;24.38;39.80;97537.25;4983717;28;20059;-79
2021/09/02 10:46:42;;;;;;;4.35;3.60;;;;;;;24.34;39.72;97536.13;4983726;28;20039;-79
2021/09/02 10:49:24;;;;;;;6.22;3.45;;;;;;;24.35;39.74;97537.72;4983786;28;20051;-79
2021/09/02 10:52:05;;;;;;;5.45;4.30;;;;;;;24.35;39.79;97536.94;4981866;28;20041;-79
2021/09/02 10:54:39;;;;;;;4.72;3.53;;;;;;;24.29;39.48;97527.25;4983242;28;20039;-79
2021/09/02 10:57:17;;;;;;;5.65;3.58;;;;;;;24.22;38.60;97536.22;4983704;28;20019;-79
2021/09/02 10:59:58;;;;;;;5.65;3.42;;;;;;;24.13;37.95;97527.06;4983102;28;20028;-80
2021/09/02 11:02:48;;;;;;;4.15;3.60;;;;;;;24.07;38.66;97530.69;4982910;28;20103;-79
2021/09/02 11:05:21;;;;;;;4.72;3.83;;;;;;;24.04;39.26;97517.88;4981965;28;20055;-79
2021/09/02 11:07:51;;;;;;;4.22;3.78;;;;;;;24.04;38.57;97521.34;5540306;23;21460;-79
2021/09/02 11:13:08;;;;;;;4.47;3.33;;;;;;;23.95;38.39;97519.34;5266939;23;20043;-79
2021/09/02 11:15:37;;;;;;;4.43;3.47;;;;;;;23.97;39.36;97514.59;4981713;28;20046;-78
2021/09/02 11:18:08;;;;;;;5.28;4.00;;;;;;;24.10;39.27;97516.09;4981803;28;20031;-78
2021/09/02 11:20:44;;;;;;;4.30;3.60;;;;;;;24.19;38.66;97512.75;4981663;28;20035;-77
2021/09/02 11:23:15;;;;;;;4.90;3.67;;;;;;;24.27;38.92;97512.31;4981750;28;20031;-77
2021/09/02 11:25:48;;;;;;;4.35;3.30;;;;;;;24.32;37.80;97510.78;4988430;23;20063;-79
2021/09/02 11:28:20;;;;;;;3.67;2.92;;;;;;;24.30;37.05;97507.56;4963602;28;20051;-79
2021/09/02 11:30:48;;;;;;;5.85;3.28;;;;;;;24.27;37.35;97504.31;4963992;28;20467;-79
2021/09/02 11:33:16;;;;;;;4.97;2.88;;;;;;;24.25;37.12;97506.44;4963331;28;20055;-82
2021/09/02 11:35:55;;;;;;;5.18;2.95;;;;;;;24.30;39.40;97504.88;4962842;28;20078;-82
2021/09/02 11:38:22;;;;;;;3.78;3.20;;;;;;;24.35;37.74;97499.59;4963989;28;20062;-82
2021/09/02 11:40:50;;;;;;;5.15;3.03;;;;;;;24.32;37.85;97490.25;4963020;28;20511;-82
2021/09/02 11:43:19;;;;;;;5.32;3.20;;;;;;;24.35;38.81;97502.28;4963580;28;20055;-82
2021/09/02 11:45:51;;;;;;;5.20;3.13;;;;;;;24.38;36.99;97491.09;4963550;28;20062;-82
2021/09/02 11:48:19;;;;;;;;;;;;;;;24.35;37.39;97500.41;4964145;28;20089;-82
2021/09/02 11:50:57;;;;;;;7.90;3.33;;;;;;;24.29;37.73;97495.25;4963273;29;19929;-82
2021/09/02 11:53:28;;;;;;;4.30;3.33;;;;;;;24.31;37.97;97490.47;4963571;28;20059;-82